Flight Track Log - Related Links

Times and Time Zones

All times are in EDT time to prevent confusion due to time zone crossing. See the BER9653 flight status page for this flight to view local times or setup timezone preferences in your user account.

Time Position Orientation Groundspeed Altitude Reporting Facility
EDT Latitude Longitude Course Direction KTS MPH feet Rate Location/Type
Fri 03:42:52 AM 39.5630 2.7770 60° Northeast 174 200 900  Level FlightAware ADS-B
Fri 03:43:12 AM 39.5720 2.7970 60° Northeast 202 232 1,400 1,350 Climbing FlightAware ADS-B
Fri 03:43:32 AM 39.5820 2.8190 59° Northeast 230 265 1,800 1,800 Climbing FlightAware ADS-B
Fri 03:44:02 AM 39.5990 2.8580 60° Northeast 259 298 2,900 2,533 Climbing FlightAware ADS-B
Fri 03:44:17 AM 39.6080 2.8790 61° Northeast 258 297 3,700 3,600 Climbing FlightAware ADS-B
Fri 03:44:37 AM 39.6210 2.9050 57° Northeast 256 295 5,000 3,333 Climbing FlightAware ADS-B
Fri 03:45:02 AM 39.6370 2.9390 59° Northeast 268 308 6,200 2,850 Climbing FlightAware ADS-B
Fri 03:45:17 AM 39.6460 2.9610 62° Northeast 273 314 6,900 2,743 Climbing FlightAware ADS-B
Fri 03:45:37 AM 39.6580 2.9900 62° Northeast 277 319 7,800 2,850 Climbing FlightAware ADS-B
Fri 03:45:57 AM 39.6710 3.0200 61° Northeast 284 327 8,800 2,914 Climbing FlightAware ADS-B
Fri 03:46:12 AM 39.6810 3.0430 61° Northeast 291 335 9,500 2,073 Climbing FlightAware ADS-B
Fri 03:46:52 AM 39.7080 3.1060 61° Northeast 316 364 10,700 1,725 Climbing FlightAware ADS-B
Fri 03:47:32 AM 39.7390 3.1780 61° Northeast 351 404 11,800 2,080 Climbing FlightAware ADS-B
Fri 03:48:07 AM 39.7680 3.2450 61° Northeast 360 414 13,300 2,677 Climbing FlightAware ADS-B
Fri 03:48:37 AM 39.7990 3.2970 52° Northeast 365 420 14,700 2,571 Climbing FlightAware ADS-B
Fri 03:49:17 AM 39.8430 3.3650 50° Northeast 374 430 16,300 2,240 Climbing FlightAware ADS-B
Fri 03:49:52 AM 39.8840 3.4250 48° Northeast 379 436 17,500 2,087 Climbing FlightAware ADS-B
Fri 03:50:26 AM 39.9260 3.4870 49° Northeast 394 453 18,700 2,057 Climbing FlightAware ADS-B
Fri 03:51:02 AM 39.9680 3.5510 49° Northeast 398 458 19,900 1,944 Climbing FlightAware ADS-B
Fri 03:51:37 AM 40.0100 3.6160 50° Northeast 404 465 21,000 2,057 Climbing FlightAware ADS-B
Fri 03:52:12 AM 40.0540 3.6820 49° Northeast 407 468 22,300 1,800 Climbing FlightAware ADS-B
Fri 03:52:47 AM 40.0980 3.7490 49° Northeast 424 488 23,100 1,457 Climbing FlightAware ADS-B
Fri 03:53:22 AM 40.1430 3.8180 50° Northeast 429 494 24,000 1,543 Climbing FlightAware ADS-B
Fri 03:53:57 AM 40.1890 3.8870 49° Northeast 435 501 24,900 1,629 Climbing FlightAware ADS-B
Fri 03:54:32 AM 40.2400 3.9530 45° Northeast 438 504 25,900 1,600 Climbing FlightAware ADS-B
Fri 03:54:57 AM 40.2850 3.9930 34° Northeast 447 514 26,500 1,368 Climbing FlightAware ADS-B
Fri 03:55:29 AM 40.3430 4.0370 30° Northeast 451 519 27,200 1,364 Climbing FlightAware ADS-B
Fri 03:56:03 AM 40.4060 4.0840 30° Northeast 456 525 28,000 1,457 Climbing FlightAware ADS-B
Fri 03:56:39 AM 40.4710 4.1340 30° Northeast 457 526 28,900 1,459 Climbing FlightAware ADS-B
Fri 03:57:17 AM 40.5380 4.1860 31° Northeast 450 518 29,800 1,588 Climbing FlightAware ADS-B
Fri 03:57:47 AM 40.5920 4.2260 29° Northeast 450 518 30,700 1,739 Climbing FlightAware ADS-B
Fri 03:58:26 AM 40.6650 4.2820 30° Northeast 445 512 31,800 1,543 Climbing FlightAware ADS-B
Fri 03:58:57 AM 40.7180 4.3230 30° Northeast 435 501 32,500 1,273 Climbing FlightAware ADS-B
Fri 03:59:32 AM 40.7790 4.3700 30° Northeast 435 501 33,200 1,200 Climbing FlightAware ADS-B
Fri 04:00:07 AM 40.8390 4.4160 30° Northeast 435 501 33,900 727 Climbing FlightAware ADS-B
Fri 04:00:38 AM 40.9010 4.4570 27° Northeast 444 511 34,000 90 Climbing FlightAware ADS-B
Fri 04:01:14 AM 40.9720 4.4800 14° North 442 509 34,000  Level FlightAware ADS-B
Fri 04:01:46 AM 41.0390 4.4960 10° North 445 512 34,000  Level FlightAware ADS-B
Fri 04:02:20 AM 41.1080 4.5130 11° North 447 514 34,000  Level FlightAware ADS-B
Fri 04:02:58 AM 41.1840 4.5310 10° North 449 517 34,000  Level FlightAware ADS-B
Fri 04:03:43 AM 41.2640 4.5510 11° North 450 518 34,000  Level FlightAware ADS-B
Fri 04:04:16 AM 41.3360 4.5680 10° North 451 519 34,000  Level FlightAware ADS-B
Fri 04:04:58 AM 41.4310 4.5920 11° North 449 517 34,000  Level FlightAware ADS-B
Fri 04:05:30 AM 41.4960 4.6070 10° North 447 514 34,000  Level FlightAware ADS-B
Fri 04:06:07 AM 41.5720 4.6270 11° North 446 513 34,000  Level FlightAware ADS-B
Fri 04:06:44 AM 41.6460 4.6450 10° North 449 517 34,000  Level FlightAware ADS-B
Fri 04:07:16 AM 41.7120 4.6610 10° North 451 519 34,000  Level FlightAware ADS-B
Fri 04:07:52 AM 41.7830 4.6950 20° North 456 525 34,000  Level FlightAware ADS-B
Fri 04:08:30 AM 41.8320 4.7220 22° Northeast 456 525 34,000  Level FlightAware ADS-B
Fri 04:09:07 AM 41.9150 4.7710 24° Northeast 458 527 34,000  Level FlightAware ADS-B
Fri 04:09:42 AM 41.9870 4.8120 23° Northeast 458 527 34,000  Level FlightAware ADS-B
Fri 04:10:21 AM 42.0660 4.8590 24° Northeast 457 526 34,000  Level FlightAware ADS-B
Fri 04:10:56 AM 42.1250 4.8920 23° Northeast 457 526 34,000  Level FlightAware ADS-B
Fri 04:11:30 AM 42.1970 4.9340 23° Northeast 457 526 34,000  Level FlightAware ADS-B
Fri 04:12:07 AM 42.2790 4.9820 23° Northeast 457 526 34,000  Level FlightAware ADS-B
Fri 04:13:05 AM 42.3840 5.0440 24° Northeast 458 527 34,000  Level FlightAware ADS-B
Fri 04:13:36 AM 42.4270 5.0740 27° Northeast 459 528 34,000  Level FlightAware ADS-B
Fri 04:14:11 AM 42.4950 5.1330 33° Northeast 459 528 34,000  Level FlightAware ADS-B
Fri 04:14:57 AM 42.5830 5.2110 33° Northeast 458 527 34,000  Level FlightAware ADS-B
Fri 04:15:37 AM 42.6650 5.2850 34° Northeast 458 527 34,000  Level FlightAware ADS-B
Fri 04:16:10 AM 42.7150 5.3300 33° Northeast 458 527 34,000  Level FlightAware ADS-B
Fri 04:17:01 AM 42.8170 5.3960 25° Northeast 451 519 34,000  Level FlightAware ADS-B
Fri 04:17:31 AM 42.8750 5.4360 27° Northeast 449 517 34,000  Level FlightAware ADS-B
Fri 04:18:08 AM 42.9400 5.4820 27° Northeast 449 517 34,000  Level FlightAware ADS-B
Fri 04:18:39 AM 42.9950 5.5360 36° Northeast 453 521 34,000  Level FlightAware ADS-B
Fri 04:19:13 AM 43.0470 5.6000 42° Northeast 454 522 34,000  Level FlightAware ADS-B
Fri 04:19:47 AM 43.1010 5.6680 43° Northeast 455 524 34,000  Level FlightAware ADS-B
Fri 04:20:23 AM 43.1590 5.7400 42° Northeast 457 526 34,000  Level FlightAware ADS-B
Fri 04:20:59 AM 43.2140 5.8110 43° Northeast 458 527 34,000  Level FlightAware ADS-B
Fri 04:21:33 AM 43.2670 5.8760 42° Northeast 459 528 34,000  Level FlightAware ADS-B
Fri 04:22:05 AM 43.3180 5.9420 43° Northeast 462 532 34,000  Level FlightAware ADS-B
Fri 04:22:43 AM 43.3770 6.0130 41° Northeast 460 529 34,000  Level FlightAware ADS-B
Fri 04:22:59 AM 43.4070 6.0340 27° Northeast 456 525 34,000  Level FlightAware ADS-B
Fri 04:23:21 AM 43.4530 6.0460 11° North 451 519 34,000  Level FlightAware ADS-B
Fri 04:23:53 AM 43.5200 6.0530 North 450 518 34,000  Level FlightAware ADS-B
Fri 04:24:27 AM 43.5880 6.0600 North 450 518 34,000  Level FlightAware ADS-B
Fri 04:25:03 AM 43.6660 6.0680 North 450 518 34,000  Level FlightAware ADS-B
Fri 04:25:39 AM 43.7400 6.0760 North 450 518 34,000  Level FlightAware ADS-B
Fri 04:26:07 AM 43.7950 6.0960 15° North 457 526 34,000  Level FlightAware ADS-B
Fri 04:26:43 AM 43.8660 6.1420 25° Northeast 460 529 34,000  Level FlightAware ADS-B
Fri 04:27:13 AM 43.9230 6.1810 26° Northeast 459 528 34,000  Level FlightAware ADS-B
Fri 04:27:51 AM 43.9960 6.2300 26° Northeast 459 528 34,000  Level FlightAware ADS-B
Fri 04:28:27 AM 44.0650 6.2790 27° Northeast 459 528 34,000  Level FlightAware ADS-B
Fri 04:28:57 AM 44.1210 6.3170 26° Northeast 461 531 34,000  Level FlightAware ADS-B
Fri 04:29:37 AM 44.1970 6.3700 27° Northeast 461 531 34,000  Level FlightAware ADS-B
Fri 04:30:13 AM 44.2670 6.4170 26° Northeast 461 531 34,000  Level FlightAware ADS-B
Fri 04:30:49 AM 44.3350 6.4650 27° Northeast 461 531 34,000  Level FlightAware ADS-B
Fri 04:31:21 AM 44.3960 6.5070 26° Northeast 460 529 34,000  Level FlightAware ADS-B
Fri 04:31:57 AM 44.4630 6.5540 27° Northeast 460 529 34,000  Level FlightAware ADS-B
Fri 04:32:34 AM 44.5350 6.6040 26° Northeast 460 529 34,000  Level FlightAware ADS-B
Fri 04:33:05 AM 44.5950 6.6450 26° Northeast 460 529 34,000  Level FlightAware ADS-B
Fri 04:33:43 AM 44.6690 6.6980 27° Northeast 460 529 34,000  Level FlightAware ADS-B
Fri 04:34:17 AM 44.7330 6.7430 27° Northeast 459 528 34,000  Level FlightAware ADS-B
Fri 04:34:49 AM 44.7960 6.7800 23° Northeast 451 519 34,000  Level FlightAware ADS-B
Fri 04:35:06 AM 44.8290 6.7870 North 444 511 34,000  Level FlightAware ADS-B
Fri 04:35:35 AM 44.8860 6.7850 359° North 437 503 34,000  Level FlightAware ADS-B
Fri 04:36:07 AM 44.9530 6.7810 358° North 436 502 34,000  Level FlightAware ADS-B
Fri 04:36:43 AM 45.0250 6.7760 357° North 436 502 34,000  Level FlightAware ADS-B
Fri 04:37:15 AM 45.0910 6.7720 358° North 435 501 34,000  Level FlightAware ADS-B
Fri 04:37:55 AM 45.1690 6.7660 357° North 435 501 34,000  Level FlightAware ADS-B
Fri 04:38:31 AM 45.2420 6.7610 357° North 432 497 34,000  Level FlightAware ADS-B
Fri 04:39:03 AM 45.3070 6.7570 358° North 432 497 34,000  Level FlightAware ADS-B
Fri 04:39:39 AM 45.3770 6.7520 357° North 430 495 34,000  Level FlightAware ADS-B
Fri 04:40:15 AM 45.4490 6.7470 357° North 428 493 34,000  Level FlightAware ADS-B
Fri 04:40:45 AM 45.5090 6.7430 357° North 427 491 34,000  Level FlightAware ADS-B
Fri 04:41:24 AM 45.5850 6.7380 357° North 426 490 34,000  Level FlightAware ADS-B
Fri 04:41:59 AM 45.6550 6.7340 358° North 427 491 34,000  Level FlightAware ADS-B
Fri 04:42:33 AM 45.7220 6.7290 357° North 431 496 34,000  Level FlightAware ADS-B
Fri 04:43:09 AM 45.7950 6.7240 357° North 437 503 34,000  Level FlightAware ADS-B
Fri 04:43:44 AM 45.8670 6.7190 357° North 443 510 34,000  Level FlightAware ADS-B
Fri 04:44:16 AM 45.9320 6.7150 358° North 443 510 34,000  Level FlightAware ADS-B
Fri 04:44:54 AM 46.0100 6.7090 357° North 443 510 34,000  Level FlightAware ADS-B
Fri 04:45:30 AM 46.0820 6.7040 357° North 443 510 34,000  Level FlightAware ADS-B
Fri 04:46:00 AM 46.1450 6.7000 357° North 443 510 34,000  Level FlightAware ADS-B
Fri 04:46:38 AM 46.2230 6.6950 357° North 447 514 34,000  Level FlightAware ADS-B
Fri 04:47:14 AM 46.2950 6.6900 357° North 446 513 34,000  Level FlightAware ADS-B
Fri 04:47:46 AM 46.3630 6.6850 357° North 446 513 34,000 -174 Level FlightAware ADS-B
Fri 04:48:23 AM 46.4280 6.6930 North 454 522 33,800 -692 Descending FlightAware ADS-B
Fri 04:48:38 AM 46.4650 6.7220 28° Northeast 463 533 33,400 -1,333 Descending FlightAware ADS-B
Fri 04:48:50 AM 46.4820 6.7460 44° Northeast 467 537 33,200 -1,125 Descending FlightAware ADS-B
Fri 04:49:26 AM 46.5310 6.8330 51° Northeast 463 533 32,500 -1,250 Descending FlightAware ADS-B
Fri 04:50:02 AM 46.5790 6.9210 52° Northeast 465 535 31,700 -1,500 Descending FlightAware ADS-B
Fri 04:50:38 AM 46.6290 7.0110 51° Northeast 468 539 30,700 -1,588 Descending FlightAware ADS-B
Fri 04:51:10 AM 46.6730 7.0890 51° Northeast 465 535 29,900 -1,500 Descending FlightAware ADS-B
Fri 04:51:46 AM 46.7200 7.1740 51° Northeast 463 533 29,000 -1,543 Descending FlightAware ADS-B
Fri 04:52:20 AM 46.7670 7.2630 52° Northeast 468 539 28,100 -1,552 Descending FlightAware ADS-B
Fri 04:52:44 AM 46.8000 7.3170 48° Northeast 464 534 27,500 -1,222 Descending FlightAware ADS-B
Fri 04:53:14 AM 46.8530 7.3690 34° Northeast 447 514 27,000 -1,612 Descending FlightAware ADS-B
Fri 04:53:51 AM 46.9140 7.4300 34° Northeast 432 497 25,700 -1,622 Descending FlightAware ADS-B
Fri 04:54:28 AM 46.9740 7.4870 33° Northeast 425 489 25,000 -592 Descending FlightAware ADS-B
Fri 04:55:02 AM 47.0300 7.5410 33° Northeast 424 488 25,000  Level FlightAware ADS-B
Fri 04:55:39 AM 47.0930 7.6020 33° Northeast 425 489 25,000  Level FlightAware ADS-B
Fri 04:56:12 AM 47.1460 7.6540 34° Northeast 424 488 25,000  Level FlightAware ADS-B
Fri 04:56:48 AM 47.2080 7.7070 30° Northeast 418 481 25,000  Level FlightAware ADS-B
Fri 04:57:08 AM 47.2440 7.7220 16° North 414 476 25,000  Level FlightAware ADS-B
Fri 04:57:43 AM 47.3090 7.7390 10° North 411 473 25,000  Level FlightAware ADS-B
Fri 04:58:20 AM 47.3790 7.7550 North 410 472 25,000 -82 Level FlightAware ADS-B
Fri 04:58:56 AM 47.4470 7.7710 North 405 466 24,900 -1,343 Descending FlightAware ADS-B
Fri 04:59:27 AM 47.5030 7.7840 North 405 466 23,500 -2,294 Descending FlightAware ADS-B
Fri 05:00:04 AM 47.5720 7.8000 North 399 459 22,300 -1,216 Descending FlightAware ADS-B
Fri 05:00:41 AM 47.6390 7.8160 North 406 467 22,000 -254 Descending FlightAware ADS-B
Fri 05:01:15 AM 47.7020 7.8310 North 410 472 22,000 -563 Level FlightAware ADS-B
Fri 05:01:45 AM 47.7600 7.8450 North 406 467 21,400 -1,739 Descending FlightAware ADS-B
Fri 05:02:24 AM 47.8290 7.8610 North 393 452 20,000 -2,211 Descending FlightAware ADS-B
Fri 05:03:01 AM 47.8930 7.8750 North 375 432 18,600 -2,583 Descending FlightAware ADS-B
Fri 05:03:36 AM 47.9520 7.8890 North 370 426 16,900 -2,870 Descending FlightAware ADS-B
Fri 05:04:10 AM 48.0080 7.9040 10° North 362 417 15,300 -2,783 Descending FlightAware ADS-B
Fri 05:04:45 AM 48.0680 7.9180 North 350 403 13,700 -2,750 Descending FlightAware ADS-B
Fri 05:05:22 AM 48.1260 7.9330 10° North 342 394 12,000 -2,480 Descending FlightAware ADS-B
Fri 05:06:00 AM 48.1870 7.9480 North 326 375 10,600 -1,913 Descending FlightAware ADS-B
Fri 05:06:31 AM 48.2290 7.9610 12° North 309 356 9,800 -1,800 Descending FlightAware ADS-B
Fri 05:07:00 AM 48.2690 7.9760 14° North 303 349 8,800 -2,082 Descending FlightAware ADS-B
Fri 05:07:20 AM 48.2960 7.9870 15° North 303 349 8,100 -2,049 Descending FlightAware ADS-B
Fri 05:07:41 AM 48.3240 7.9980 15° North 301 346 7,400 -2,195 Descending FlightAware ADS-B
Fri 05:08:01 AM 48.3510 8.0080 14° North 299 344 6,600 -2,100 Descending FlightAware ADS-B
Fri 05:08:21 AM 48.3780 8.0190 15° North 286 329 6,000 -1,800 Descending FlightAware ADS-B
Fri 05:08:41 AM 48.4040 8.0290 14° North 283 326 5,400 -900 Descending FlightAware ADS-B
Fri 05:09:01 AM 48.4290 8.0390 15° North 268 308 5,400  Level FlightAware ADS-B
Fri 05:09:21 AM 48.4540 8.0500 16° North 265 305 5,400  Level FlightAware ADS-B
Fri 05:09:46 AM 48.4830 8.0620 15° North 264 304 5,400  Level FlightAware ADS-B
Fri 05:10:06 AM 48.5080 8.0720 15° North 271 312 5,400  Level FlightAware ADS-B
Fri 05:10:27 AM 48.5320 8.0870 22° Northeast 266 306 5,400  Level FlightAware ADS-B
Fri 05:10:46 AM 48.5550 8.1040 26° Northeast 267 307 5,400  Level FlightAware ADS-B
Fri 05:11:06 AM 48.5770 8.1190 24° Northeast 267 307 5,400  Level FlightAware ADS-B
Fri 05:11:32 AM 48.6060 8.1400 26° Northeast 273 314 5,400  Level FlightAware ADS-B
Fri 05:11:52 AM 48.6310 8.1570 24° Northeast 273 314 5,400  Level FlightAware ADS-B
Fri 05:12:11 AM 48.6530 8.1730 26° Northeast 268 308 5,400  Level FlightAware ADS-B
Fri 05:12:31 AM 48.6760 8.1880 23° Northeast 267 307 5,400  Level FlightAware ADS-B
Fri 05:12:51 AM 48.6990 8.2050 26° Northeast 267 307 5,400  Level FlightAware ADS-B
Fri 05:13:21 AM 48.7340 8.2300 25° Northeast 265 305 5,400  Level FlightAware ADS-B
Fri 05:13:41 AM 48.7550 8.2450 25° Northeast 265 305 5,400  Level FlightAware ADS-B
Fri 05:14:07 AM 48.7830 8.2640 24° Northeast 266 306 5,400  Level FlightAware ADS-B
Fri 05:14:26 AM 48.8070 8.2820 26° Northeast 265 305 5,400  Level FlightAware ADS-B
Fri 05:14:47 AM 48.8310 8.2980 24° Northeast 264 304 5,400  Level FlightAware ADS-B
Fri 05:15:12 AM 48.8590 8.3170 24° Northeast 271 312 5,400  Level FlightAware ADS-B
Fri 05:15:32 AM 48.8840 8.3350 25° Northeast 270 311 5,400  Level FlightAware ADS-B
Fri 05:15:52 AM 48.9070 8.3510 25° Northeast 269 310 5,400  Level FlightAware ADS-B
Fri 05:16:17 AM 48.9340 8.3700 25° Northeast 269 310 5,400  Level FlightAware ADS-B
Fri 05:16:37 AM 48.9570 8.3860 25° Northeast 269 310 5,400 -400 Level FlightAware ADS-B
Fri 05:16:47 AM 48.9690 8.3930 21° North 266 306 5,200 -1,600 Descending FlightAware ADS-B
Fri 05:16:52 AM 48.9750 8.3940 North 256 295 5,000 -1,680 Descending FlightAware ADS-B
Fri 05:17:12 AM 48.9970 8.3850 345° North 255 293 4,500 -1,400 Descending FlightAware ADS-B
Fri 05:17:22 AM 49.0050 8.3730 315° West 245 282 4,300 -1,600 Descending FlightAware ADS-B
Fri 05:17:27 AM 49.0090 8.3660 311° West 243 280 4,100 -1,200 Descending FlightAware ADS-B
Fri 05:17:42 AM 49.0140 8.3430 288° West 240 276 3,900 -343 Descending FlightAware ADS-B
Fri 05:18:02 AM 49.0060 8.3120 249° West 223 257 3,900  Level FlightAware ADS-B
Fri 05:18:22 AM 48.9930 8.2890 229° Southwest 214 246 3,900  Level FlightAware ADS-B
Fri 05:18:42 AM 48.9780 8.2690 221° Southwest 201 231 3,900  Level FlightAware ADS-B
Fri 05:19:02 AM 48.9650 8.2550 215° Southwest 180 207 3,900  Level FlightAware ADS-B
Fri 05:19:17 AM 48.9520 8.2430 211° Southwest 175 201 3,900 -171 Level FlightAware ADS-B
Fri 05:19:37 AM 48.9410 8.2320 213° Southwest 173 199 3,800 -667 Descending FlightAware ADS-B
Fri 05:20:02 AM 48.9220 8.2150 210° Southwest 168 193 3,400 -933 Descending FlightAware ADS-B
Fri 05:20:22 AM 48.9090 8.2030 211° Southwest 154 177 3,100 -900 Descending FlightAware ADS-B
Fri 05:20:42 AM 48.8980 8.1920 213° Southwest 135 155 2,800 -750 Descending FlightAware ADS-B
Fri 05:21:02 AM 48.8870 8.1820 211° Southwest 137 158 2,600 -750 Descending FlightAware ADS-B
Fri 05:21:22 AM 48.8770 8.1720 213° Southwest 136 157 2,300 -750 Descending FlightAware ADS-B
Fri 05:21:42 AM 48.8650 8.1610 211° Southwest 135 155 2,100 -686 Descending FlightAware ADS-B
Fri 05:21:57 AM 48.8570 8.1540 210° Southwest 134 154 1,900 -667 Descending FlightAware ADS-B
Fri 05:22:27 AM 48.8420 8.1400 212° Southwest 132 152 1,600 -720 Descending FlightAware ADS-B
Fri 05:22:47 AM 48.8310 8.1290 213° Southwest 134 154 1,300 -833 Descending FlightAware ADS-B
Fri 05:23:03 AM 48.8230 8.1210 213° Southwest 134 154 1,100 -686 Descending FlightAware ADS-B
Fri 05:23:22 AM 48.8130 8.1120 211° Southwest 135 155 900 -735 Descending FlightAware ADS-B
Fri 05:23:52 AM 48.7960 8.0960 212° Southwest 135 155 500 -500 Descending FlightAware ADS-B
Fri 05:24:22 AM 48.7820 8.0830 211° Southwest 135 155 400 -200 Descending FlightAware ADS-B
Fri 05:26:00 AM 48.7794 8.0805 212° Southwest  Level Estimated
Fri 05:27:00 AM 48.7794 8.0805 North  Level Estimated
Fri 05:28:00 AM 48.7794 8.0805 North  Level Estimated
Fri 05:29:00 AM 48.7794 8.0805 North  Level Estimated
Fri 05:30:00 AM 48.7794 8.0805 North  Level Estimated
Fri 05:31:00 AM 48.7794 8.0805 North  Level Estimated
Fri 05:32:00 AM 48.7794 8.0805 North  Level Estimated
Fri 05:33:00 AM 48.7794 8.0805 North  Level Estimated
Fri 05:34:00 AM 48.7794 8.0805 North  Level Estimated
Fri 05:35:00 AM 48.7794 8.0805 North  Level Estimated

Login

Don't have an account? Register now (free) for customized features, flight alerts, and more!